Time,TemperatureF,DewpointF,PressureIn,WindDirection,WindDirectionDegrees,WindSpeedMPH,WindSpeedGustMPH,Humidity,HourlyPrecipIn,Conditions,Clouds,dailyrainin,SolarRadiationWatts/m^2,SoftwareType,DateUTC
2013-03-06 00:00:00,57.5,55.2,29.71,SSW,200,3.5,3.5,92,0.00,-RA,,0.03,0.0,WeatherDisplay:10.37,2013-03-06 05:00:00,
2013-03-06 00:05:00,57.4,55.1,29.71,West,262,3.5,3.5,92,0.00,RA,,0.00,0.0,WeatherDisplay:10.37,2013-03-06 05:05:00,
2013-03-06 00:10:00,57.4,55.4,29.71,SW,234,3.5,3.5,93,0.00,RA,,0.00,0.0,WeatherDisplay:10.37,2013-03-06 05:10:00,
2013-03-06 00:15:00,57.4,55.4,29.71,WSW,241,2.3,2.3,93,0.00,BKN,,0.00,0.0,WeatherDisplay:10.37,2013-03-06 05:15:00,
2013-03-06 00:20:00,57.4,55.1,29.70,WSW,245,3.5,3.5,92,0.00,BKN,,0.00,0.0,WeatherDisplay:10.37,2013-03-06 05:20:00,
2013-03-06 00:25:00,57.4,55.1,29.71,SW,234,4.6,4.6,92,0.00,BKN,,0.00,0.0,WeatherDisplay:10.37,2013-03-06 05:25:00,
2013-03-06 00:30:00,57.3,55.0,29.70,SW,232,4.6,4.6,92,0.00,BKN,,0.00,0.0,WeatherDisplay:10.37,2013-03-06 05:30:00,
2013-03-06 00:35:00,57.2,54.9,29.71,SW,234,6.9,6.9,92,0.00,BKN,,0.00,0.0,WeatherDisplay:10.37,2013-03-06 05:35:00,
2013-03-06 00:40:00,57.2,54.9,29.70,West,265,4.6,4.6,92,0.00,BKN,,0.00,0.0,WeatherDisplay:10.37,2013-03-06 05:40:00,
2013-03-06 00:45:00,57.1,54.8,29.70,WSW,240,3.5,3.5,92,0.00,BKN,,0.00,0.0,WeatherDisplay:10.37,2013-03-06 05:45:00,
2013-03-06 00:50:00,57.0,54.4,29.70,SW,232,2.3,2.3,91,0.00,BKN,,0.00,0.0,WeatherDisplay:10.37,2013-03-06 05:50:00,
2013-03-06 00:55:00,56.9,54.3,29.70,SW,218,3.5,3.5,91,0.00,BKN,,0.00,0.0,WeatherDisplay:10.37,2013-03-06 05:55:00,
2013-03-06 01:00:00,56.9,54.3,29.70,SW,226,3.5,3.5,91,0.00,BKN,,0.00,0.0,WeatherDisplay:10.37,2013-03-06 06:00:00,
2013-03-06 01:05:00,56.8,54.2,29.70,WSW,250,4.6,4.6,91,0.00,BKN,,0.00,0.0,WeatherDisplay:10.37,2013-03-06 06:05:00,
2013-03-06 01:10:00,56.7,54.1,29.70,WSW,239,4.6,4.6,91,0.00,BKN,,0.00,0.0,WeatherDisplay:10.37,2013-03-06 06:10:00,
2013-03-06 01:15:00,56.6,53.7,29.70,SW,231,5.0,5.0,90,0.00,BKN,,0.00,0.0,WeatherDisplay:10.37,2013-03-06 06:15:00,
2013-03-06 01:20:00,56.5,53.3,29.70,SW,220,2.3,2.3,89,0.00,BKN,,0.00,0.0,WeatherDisplay:10.37,2013-03-06 06:20:00,
2013-03-06 01:25:00,56.4,53.2,29.70,WNW,287,4.6,4.6,89,0.00,BKN,,0.00,0.0,WeatherDisplay:10.37,2013-03-06 06:25:00,
2013-03-06 01:30:00,56.4,52.6,29.70,West,262,8.1,8.1,87,0.00,BKN,,0.00,0.0,WeatherDisplay:10.37,2013-03-06 06:30:00,
2013-03-06 01:35:00,56.3,52.2,29.69,WSW,242,5.8,5.8,86,0.00,BKN,,0.00,0.0,WeatherDisplay:10.37,2013-03-06 06:35:00,
2013-03-06 01:40:00,56.2,51.7,29.69,WSW,246,5.8,5.8,85,0.00,BKN,,0.00,0.0,WeatherDisplay:10.37,2013-03-06 06:40:00,
2013-03-06 01:45:00,56.0,51.6,29.70,SW,228,4.6,4.6,85,0.00,BKN,,0.00,0.0,WeatherDisplay:10.37,2013-03-06 06:45:00,
2013-03-06 01:50:00,55.9,50.8,29.70,WSW,251,4.6,4.6,83,0.00,BKN,,0.00,0.0,WeatherDisplay:10.37,2013-03-06 06:50:00,
2013-03-06 01:55:00,55.7,50.6,29.69,SW,228,5.0,5.0,83,0.00,BKN,,0.00,0.0,WeatherDisplay:10.37,2013-03-06 06:55:00,
2013-03-06 02:00:00,55.5,50.1,29.69,SW,231,5.8,5.8,82,0.00,BKN,,0.00,0.0,WeatherDisplay:10.37,2013-03-06 07:00:00,
2013-03-06 02:05:00,55.3,49.9,29.69,WSW,252,5.8,5.8,82,0.00,SCT,,0.00,0.0,WeatherDisplay:10.37,2013-03-06 07:05:00,
2013-03-06 02:10:00,55.1,49.4,29.69,West,273,8.1,8.1,81,0.00,SCT,,0.00,0.0,WeatherDisplay:10.37,2013-03-06 07:10:00,
2013-03-06 02:15:00,55.0,49.3,29.70,West,278,4.6,4.6,81,0.00,SCT,,0.00,0.0,WeatherDisplay:10.37,2013-03-06 07:15:00,
2013-03-06 02:20:00,54.9,49.5,29.70,WSW,252,3.5,3.5,82,0.00,SCT,,0.00,0.0,WeatherDisplay:10.37,2013-03-06 07:20:00,
2013-03-06 02:25:00,54.5,47.4,29.70,WSW,253,10.4,10.4,77,0.00,SCT,,0.00,0.0,WeatherDisplay:10.37,2013-03-06 07:25:00,
2013-03-06 02:30:00,53.7,45.6,29.71,West,275,10.4,10.4,74,0.00,SCT,,0.00,0.0,WeatherDisplay:10.37,2013-03-06 07:30:00,
2013-03-06 02:35:00,53.0,44.2,29.71,West,268,8.1,8.1,72,0.00,SCT,,0.00,0.0,WeatherDisplay:10.37,2013-03-06 07:35:00,
2013-03-06 02:40:00,52.3,43.2,29.71,West,260,13.8,13.8,71,0.00,SCT,,0.00,0.0,WeatherDisplay:10.37,2013-03-06 07:40:00,
2013-03-06 02:45:00,51.7,42.6,29.71,WNW,294,11.5,11.5,71,0.00,SCT,,0.00,0.0,WeatherDisplay:10.37,2013-03-06 07:45:00,
2013-03-06 02:50:00,51.2,42.5,29.72,WNW,286,10.4,10.4,72,0.00,SCT,,0.00,0.0,WeatherDisplay:10.37,2013-03-06 07:50:00,
2013-03-06 02:55:00,50.7,41.6,29.72,West,275,6.9,6.9,71,0.00,SCT,,0.00,0.0,WeatherDisplay:10.37,2013-03-06 07:55:00,
2013-03-06 03:00:00,50.4,41.7,29.72,West,261,10.4,10.4,72,0.00,SCT,,0.00,0.0,WeatherDisplay:10.37,2013-03-06 08:00:00,
2013-03-06 03:05:00,50.0,41.3,29.73,WSW,251,12.7,12.7,72,0.00,SCT,,0.00,0.0,WeatherDisplay:10.37,2013-03-06 08:05:00,
2013-03-06 03:10:00,49.5,39.7,29.73,WSW,237,8.1,8.1,69,0.00,SCT,,0.00,0.0,WeatherDisplay:10.37,2013-03-06 08:10:00,
2013-03-06 03:15:00,49.0,39.6,29.74,SSW,209,9.2,9.2,70,0.00,SCT,,0.00,0.0,WeatherDisplay:10.37,2013-03-06 08:15:00,
2013-03-06 03:20:00,48.5,38.8,29.74,West,276,5.8,5.8,69,0.00,CLR,,0.00,0.0,WeatherDisplay:10.37,2013-03-06 08:20:00,
2013-03-06 03:25:00,47.8,37.4,29.74,West,271,11.5,11.5,67,0.00,CLR,,0.00,0.0,WeatherDisplay:10.37,2013-03-06 08:25:00,
2013-03-06 03:30:00,47.4,37.0,29.75,West,274,11.5,11.5,67,0.00,CLR,,0.00,0.0,WeatherDisplay:10.37,2013-03-06 08:30:00,
2013-03-06 03:35:00,46.7,35.9,29.75,West,279,11.5,11.5,66,0.00,CLR,,0.00,0.0,WeatherDisplay:10.37,2013-03-06 08:35:00,
2013-03-06 03:40:00,46.1,35.4,29.75,West,269,11.5,11.5,66,0.00,CLR,,0.00,0.0,WeatherDisplay:10.37,2013-03-06 08:40:00,
2013-03-06 03:45:00,45.7,35.7,29.75,West,276,8.1,8.1,68,0.00,CLR,,0.00,0.0,WeatherDisplay:10.37,2013-03-06 08:45:00,
2013-03-06 03:50:00,45.4,35.5,29.75,NW,315,13.8,13.8,68,0.00,CLR,,0.00,0.0,WeatherDisplay:10.37,2013-03-06 08:50:00,
2013-03-06 03:55:00,45.2,36.0,29.76,SW,230,5.8,5.8,70,0.00,CLR,,0.00,0.0,WeatherDisplay:10.37,2013-03-06 08:55:00,
2013-03-06 04:00:00,44.9,35.7,29.76,WSW,249,4.6,4.6,70,0.00,CLR,,0.00,0.0,WeatherDisplay:10.37,2013-03-06 09:00:00,
2013-03-06 04:05:00,44.7,35.9,29.77,SW,219,6.9,6.9,71,0.00,CLR,,0.00,0.0,WeatherDisplay:10.37,2013-03-06 09:05:00,
2013-03-06 04:10:00,44.7,35.9,29.77,WNW,282,11.5,11.5,71,0.00,CLR,,0.00,0.0,WeatherDisplay:10.37,2013-03-06 09:10:00,
2013-03-06 04:15:00,44.6,35.1,29.77,NE,43,8.1,8.1,69,0.00,CLR,,0.00,0.0,WeatherDisplay:10.37,2013-03-06 09:15:00,
2013-03-06 04:20:00,44.3,34.0,29.77,West,276,18.4,18.4,67,0.00,FEW,,0.00,0.0,WeatherDisplay:10.37,2013-03-06 09:20:00,
2013-03-06 04:25:00,44.1,33.8,29.77,WSW,244,17.3,17.3,67,0.00,FEW,,0.00,0.0,WeatherDisplay:10.37,2013-03-06 09:25:00,
2013-03-06 04:30:00,44.0,33.4,29.78,West,263,11.5,11.5,66,0.00,FEW,,0.00,0.0,WeatherDisplay:10.37,2013-03-06 09:30:00,
2013-03-06 04:35:00,43.9,33.3,29.78,WSW,252,12.7,12.7,66,0.00,FEW,,0.00,0.0,WeatherDisplay:10.37,2013-03-06 09:35:00,
2013-03-06 04:40:00,43.7,33.1,29.78,West,260,4.6,4.6,66,0.00,FEW,,0.00,0.0,WeatherDisplay:10.37,2013-03-06 09:40:00,
2013-03-06 04:45:00,43.6,33.4,29.78,WNW,298,8.1,8.1,67,0.00,FEW,,0.00,0.0,WeatherDisplay:10.37,2013-03-06 09:45:00,
2013-03-06 04:50:00,43.4,33.2,29.78,West,270,6.9,6.9,67,0.00,FEW,,0.00,0.0,WeatherDisplay:10.37,2013-03-06 09:50:00,
2013-03-06 04:55:00,43.3,32.7,29.78,WSW,245,5.0,5.0,66,0.00,FEW,,0.00,0.0,WeatherDisplay:10.37,2013-03-06 09:55:00,
2013-03-06 05:00:00,43.1,32.1,29.78,West,264,8.1,8.1,65,0.00,FEW,,0.00,0.0,WeatherDisplay:10.37,2013-03-06 10:00:00,
2013-03-06 05:05:00,43.0,32.4,29.78,WNW,282,6.9,6.9,66,0.00,FEW,,0.00,0.0,WeatherDisplay:10.37,2013-03-06 10:05:00,
2013-03-06 05:10:00,42.8,32.2,29.78,West,259,8.1,8.1,66,0.00,FEW,,0.00,0.0,WeatherDisplay:10.37,2013-03-06 10:10:00,
2013-03-06 05:15:00,42.7,32.5,29.78,WNW,292,12.7,12.7,67,0.00,FEW,,0.00,0.0,WeatherDisplay:10.37,2013-03-06 10:15:00,
2013-03-06 05:20:00,42.5,31.6,29.79,WSW,255,10.4,10.4,65,0.00,FEW,,0.00,0.0,WeatherDisplay:10.37,2013-03-06 10:20:00,
2013-03-06 05:25:00,42.5,31.9,29.79,WNW,297,5.8,5.8,66,0.00,FEW,,0.00,0.0,WeatherDisplay:10.37,2013-03-06 10:25:00,
2013-03-06 05:30:00,42.4,31.8,29.79,SW,220,6.9,6.9,66,0.00,FEW,,0.00,0.0,WeatherDisplay:10.37,2013-03-06 10:30:00,
2013-03-06 05:35:00,42.3,31.7,29.79,West,268,5.0,5.0,66,0.00,FEW,,0.00,0.0,WeatherDisplay:10.37,2013-03-06 10:35:00,
2013-03-06 05:40:00,42.2,31.6,29.79,West,281,5.8,5.8,66,0.00,FEW,,0.00,0.0,WeatherDisplay:10.37,2013-03-06 10:40:00,
2013-03-06 05:45:00,42.1,30.8,29.79,West,272,9.2,9.2,64,0.00,FEW,,0.00,0.0,WeatherDisplay:10.37,2013-03-06 10:45:00,
2013-03-06 05:50:00,42.1,30.8,29.79,West,277,7.0,7.0,64,0.00,FEW,,0.00,0.0,WeatherDisplay:10.37,2013-03-06 10:50:00,
2013-03-06 05:55:00,42.0,30.7,29.79,West,263,10.4,10.4,64,0.00,FEW,,0.00,0.0,WeatherDisplay:10.37,2013-03-06 10:55:00,
2013-03-06 06:00:00,41.9,30.6,29.79,West,259,4.6,4.6,64,0.00,FEW,,0.00,0.0,WeatherDisplay:10.37,2013-03-06 11:00:00,
2013-03-06 06:05:00,41.9,30.2,29.79,SSW,210,4.6,4.6,63,0.00,FEW,,0.00,0.0,WeatherDisplay:10.37,2013-03-06 11:05:00,
2013-03-06 06:10:00,41.9,30.6,29.79,SW,221,9.2,9.2,64,0.00,FEW,,0.00,0.0,WeatherDisplay:10.37,2013-03-06 11:10:00,
2013-03-06 06:15:00,41.7,30.4,29.79,West,262,4.6,4.6,64,0.00,FEW,,0.00,0.0,WeatherDisplay:10.37,2013-03-06 11:15:00,
2013-03-06 06:20:00,41.6,30.3,29.79,West,275,5.8,5.8,64,0.00,CLR,,0.00,0.0,WeatherDisplay:10.37,2013-03-06 11:20:00,
2013-03-06 06:25:00,41.6,30.3,29.79,SW,230,6.9,6.9,64,0.00,CLR,,0.00,0.0,WeatherDisplay:10.37,2013-03-06 11:25:00,
2013-03-06 06:30:00,41.4,30.5,29.79,SW,236,4.6,4.6,65,0.00,CLR,,0.00,0.0,WeatherDisplay:10.37,2013-03-06 11:30:00,
2013-03-06 06:35:00,41.3,30.4,29.80,SW,234,5.8,5.8,65,0.00,CLR,,0.00,0.0,WeatherDisplay:10.37,2013-03-06 11:35:00,
2013-03-06 06:40:00,41.3,30.4,29.80,WSW,249,8.1,8.1,65,0.00,CLR,,0.00,0.0,WeatherDisplay:10.37,2013-03-06 11:40:00,
2013-03-06 06:45:00,41.3,30.4,29.80,West,262,5.8,5.8,65,0.00,CLR,,0.00,0.0,WeatherDisplay:10.37,2013-03-06 11:45:00,
2013-03-06 06:50:00,41.2,30.7,29.80,WSW,251,3.5,3.5,66,0.00,CLR,,0.00,0.0,WeatherDisplay:10.37,2013-03-06 11:50:00,
2013-03-06 06:55:00,41.1,30.6,29.80,SW,223,5.8,5.8,66,0.00,CLR,,0.00,0.0,WeatherDisplay:10.37,2013-03-06 11:55:00,
2013-03-06 07:00:00,41.1,30.6,29.80,WNW,286,9.2,9.2,66,0.00,CLR,,0.00,0.0,WeatherDisplay:10.37,2013-03-06 12:00:00,
2013-03-06 07:05:00,41.1,30.6,29.81,West,264,3.5,3.5,66,0.00,CLR,,0.00,0.0,WeatherDisplay:10.37,2013-03-06 12:05:00,
2013-03-06 07:10:00,41.2,30.3,29.81,SW,235,9.2,9.2,65,0.00,CLR,,0.00,0.0,WeatherDisplay:10.37,2013-03-06 12:10:00,
2013-03-06 07:15:00,41.3,30.0,29.81,WSW,253,11.5,11.5,64,0.00,CLR,,0.00,0.0,WeatherDisplay:10.37,2013-03-06 12:15:00,
2013-03-06 07:20:00,41.4,30.1,29.82,WSW,245,11.5,11.5,64,0.00,CLR,,0.00,0.0,WeatherDisplay:10.37,2013-03-06 12:20:00,
2013-03-06 07:25:00,41.5,30.6,29.82,SW,216,3.5,3.5,65,0.00,CLR,,0.00,0.0,WeatherDisplay:10.37,2013-03-06 12:25:00,
2013-03-06 07:30:00,41.6,30.7,29.82,West,270,6.9,6.9,65,0.00,CLR,,0.00,0.0,WeatherDisplay:10.37,2013-03-06 12:30:00,
2013-03-06 07:35:00,41.8,30.5,29.82,West,274,8.1,8.1,64,0.00,CLR,,0.00,0.0,WeatherDisplay:10.37,2013-03-06 12:35:00,
2013-03-06 07:40:00,42.0,30.7,29.83,WSW,257,5.8,5.8,64,0.00,CLR,,0.00,0.0,WeatherDisplay:10.37,2013-03-06 12:40:00,
2013-03-06 07:45:00,42.1,30.4,29.83,West,280,5.8,5.8,63,0.00,CLR,,0.00,0.0,WeatherDisplay:10.37,2013-03-06 12:45:00,
2013-03-06 07:50:00,42.3,30.6,29.83,West,272,4.6,4.6,63,0.00,CLR,,0.00,0.0,WeatherDisplay:10.37,2013-03-06 12:50:00,
2013-03-06 07:55:00,42.5,30.8,29.83,WSW,247,4.6,4.6,63,0.00,CLR,,0.00,0.0,WeatherDisplay:10.37,2013-03-06 12:55:00,
2013-03-06 08:00:00,42.9,30.8,29.83,WNW,287,9.2,9.2,62,0.00,CLR,,0.00,0.0,WeatherDisplay:10.37,2013-03-06 13:00:00,
2013-03-06 08:05:00,43.6,31.4,29.83,WSW,254,4.6,4.6,62,0.00,SCT,,0.00,0.0,WeatherDisplay:10.37,2013-03-06 13:05:00,
2013-03-06 08:10:00,43.8,31.6,29.84,WSW,257,6.9,6.9,62,0.00,SCT,,0.00,0.0,WeatherDisplay:10.37,2013-03-06 13:10:00,
2013-03-06 08:15:00,43.8,32.0,29.84,SW,232,5.8,5.8,63,0.00,SCT,,0.00,0.0,WeatherDisplay:10.37,2013-03-06 13:15:00,
2013-03-06 08:20:00,43.6,31.4,29.84,West,267,8.1,8.1,62,0.00,SCT,,0.00,0.0,WeatherDisplay:10.37,2013-03-06 13:20:00,
2013-03-06 08:25:00,44.0,32.2,29.84,SW,228,4.6,4.6,63,0.00,SCT,,0.00,0.0,WeatherDisplay:10.37,2013-03-06 13:25:00,
2013-03-06 08:30:00,44.5,32.3,29.84,West,264,8.1,8.1,62,0.00,SCT,,0.00,0.0,WeatherDisplay:10.37,2013-03-06 13:30:00,
2013-03-06 08:35:00,44.5,32.3,29.84,WSW,247,5.8,5.8,62,0.00,SCT,,0.00,0.0,WeatherDisplay:10.37,2013-03-06 13:35:00,
2013-03-06 08:40:00,44.2,32.4,29.84,WSW,249,6.9,6.9,63,0.00,SCT,,0.00,0.0,WeatherDisplay:10.37,2013-03-06 13:40:00,
2013-03-06 08:45:00,43.9,31.7,29.84,SW,235,11.5,11.5,62,0.00,SCT,,0.00,0.0,WeatherDisplay:10.37,2013-03-06 13:45:00,
2013-03-06 08:50:00,44.0,32.6,29.84,West,279,8.0,8.0,64,0.00,SCT,,0.00,0.0,WeatherDisplay:10.37,2013-03-06 13:50:00,
2013-03-06 08:55:00,44.3,32.5,29.84,WSW,258,9.2,9.2,63,0.00,SCT,,0.00,0.0,WeatherDisplay:10.37,2013-03-06 13:55:00,
2013-03-06 09:00:00,44.4,32.2,29.85,WSW,241,10.4,10.4,62,0.00,SCT,,0.00,0.0,WeatherDisplay:10.37,2013-03-06 14:00:00,
2013-03-06 09:05:00,44.2,32.0,29.84,WNW,294,9.2,9.2,62,0.00,SCT,,0.00,0.0,WeatherDisplay:10.37,2013-03-06 14:05:00,
2013-03-06 09:10:00,44.2,32.4,29.85,West,276,6.9,6.9,63,0.00,SCT,,0.00,0.0,WeatherDisplay:10.37,2013-03-06 14:10:00,
2013-03-06 09:15:00,44.3,32.1,29.84,WSW,246,10.4,10.4,62,0.00,SCT,,0.00,0.0,WeatherDisplay:10.37,2013-03-06 14:15:00,
2013-03-06 09:20:00,44.5,31.9,29.84,SW,233,11.5,11.5,61,0.00,BKN,,0.00,0.0,WeatherDisplay:10.37,2013-03-06 14:20:00,
2013-03-06 09:25:00,45.0,31.5,29.84,WNW,283,4.6,4.6,59,0.00,BKN,,0.00,0.0,WeatherDisplay:10.37,2013-03-06 14:25:00,
2013-03-06 09:30:00,45.6,31.2,29.84,SW,233,6.9,6.9,57,0.00,BKN,,0.00,0.0,WeatherDisplay:10.37,2013-03-06 14:30:00,
2013-03-06 09:35:00,46.1,29.9,29.85,WNW,287,6.9,6.9,53,0.00,BKN,,0.00,0.0,WeatherDisplay:10.37,2013-03-06 14:35:00,
2013-03-06 09:40:00,46.3,29.6,29.84,West,262,6.9,6.9,52,0.00,BKN,,0.00,0.0,WeatherDisplay:10.37,2013-03-06 14:40:00,
2013-03-06 09:45:00,46.5,29.3,29.84,West,263,5.8,5.8,51,0.00,BKN,,0.00,0.0,WeatherDisplay:10.37,2013-03-06 14:45:00,
2013-03-06 09:50:00,46.5,27.8,29.85,West,271,11.5,11.5,48,0.00,BKN,,0.00,0.0,WeatherDisplay:10.37,2013-03-06 14:50:00,
2013-03-06 09:55:00,46.7,28.5,29.85,WNW,285,5.8,5.8,49,0.00,BKN,,0.00,0.0,WeatherDisplay:10.37,2013-03-06 14:55:00,
2013-03-06 10:00:00,47.0,28.8,29.85,SW,225,8.1,8.1,49,0.00,BKN,,0.00,0.0,WeatherDisplay:10.37,2013-03-06 15:00:00,
2013-03-06 10:05:00,47.0,28.3,29.85,West,264,5.8,5.8,48,0.00,BKN,,0.00,0.0,WeatherDisplay:10.37,2013-03-06 15:05:00,
2013-03-06 10:10:00,47.1,27.4,29.85,SW,225,8.1,8.1,46,0.00,BKN,,0.00,0.0,WeatherDisplay:10.37,2013-03-06 15:10:00,
2013-03-06 10:15:00,47.3,27.0,29.86,SW,218,9.2,9.2,45,0.00,BKN,,0.00,0.0,WeatherDisplay:10.37,2013-03-06 15:15:00,
2013-03-06 10:32:00,48.3,27.9,29.86,WNW,303,6.9,6.9,45,0.00,FEW,,0.00,0.0,WeatherDisplay:10.37,2013-03-06 15:32:00,
2013-03-06 10:37:00,48.5,28.6,29.87,WSW,251,6.9,6.9,46,0.00,FEW,,0.00,0.0,WeatherDisplay:10.37,2013-03-06 15:37:00,
2013-03-06 10:42:00,48.7,27.2,29.86,West,274,6.0,6.0,43,0.00,FEW,,0.00,0.0,WeatherDisplay:10.37,2013-03-06 15:42:00,
2013-03-06 10:47:00,48.8,27.8,29.86,NNW,330,9.2,9.2,44,0.00,FEW,,0.00,0.0,WeatherDisplay:10.37,2013-03-06 15:47:00,
2013-03-06 10:52:00,49.0,28.0,29.86,West,267,8.1,8.1,44,0.00,FEW,,0.00,0.0,WeatherDisplay:10.37,2013-03-06 15:52:00,
2013-03-06 10:57:00,49.2,28.2,29.87,West,272,5.8,5.8,44,0.00,FEW,,0.00,0.0,WeatherDisplay:10.37,2013-03-06 15:57:00,
2013-03-06 11:02:00,49.4,28.4,29.86,West,263,11.5,11.5,44,0.00,FEW,,0.00,0.0,WeatherDisplay:10.37,2013-03-06 16:02:00,
2013-03-06 11:07:00,49.5,27.9,29.86,West,279,8.1,8.1,43,0.00,FEW,,0.00,0.0,WeatherDisplay:10.37,2013-03-06 16:07:00,
2013-03-06 11:12:00,49.8,28.2,29.86,WSW,238,9.2,9.2,43,0.00,FEW,,0.00,0.0,WeatherDisplay:10.37,2013-03-06 16:12:00,
2013-03-06 11:17:00,49.9,28.8,29.86,NW,310,6.0,6.0,44,0.00,FEW,,0.00,0.0,WeatherDisplay:10.37,2013-03-06 16:17:00,
2013-03-06 11:22:00,50.0,28.4,29.86,WSW,251,9.2,9.2,43,0.00,FEW,,0.00,0.0,WeatherDisplay:10.37,2013-03-06 16:22:00,
2013-03-06 11:27:00,50.3,28.6,29.86,West,261,9.2,9.2,43,0.00,FEW,,0.00,0.0,WeatherDisplay:10.37,2013-03-06 16:27:00,
2013-03-06 11:32:00,50.5,27.0,29.86,WNW,285,6.9,6.9,40,0.00,FEW,,0.00,0.0,WeatherDisplay:10.37,2013-03-06 16:32:00,
2013-03-06 11:37:00,50.9,28.6,29.85,WSW,237,10.4,10.4,42,0.00,FEW,,0.00,0.0,WeatherDisplay:10.37,2013-03-06 16:37:00,
2013-03-06 11:42:00,51.0,28.1,29.86,WSW,258,9.2,9.2,41,0.00,FEW,,0.00,0.0,WeatherDisplay:10.37,2013-03-06 16:42:00,
2013-03-06 11:47:00,51.1,28.2,29.85,WSW,241,4.0,4.0,41,0.00,FEW,,0.00,0.0,WeatherDisplay:10.37,2013-03-06 16:47:00,
2013-03-06 11:52:00,51.1,28.2,29.85,WNW,289,12.7,12.7,41,0.00,FEW,,0.00,0.0,WeatherDisplay:10.37,2013-03-06 16:52:00,
2013-03-06 11:57:00,51.2,28.9,29.85,WSW,256,8.1,8.1,42,0.00,FEW,,0.00,0.0,WeatherDisplay:10.37,2013-03-06 16:57:00,
2013-03-06 12:02:00,51.5,28.6,29.85,ESE,106,10.4,10.4,41,0.00,FEW,,0.00,0.0,WeatherDisplay:10.37,2013-03-06 17:02:00,
2013-03-06 12:07:00,52.1,30.3,29.85,WNW,289,5.8,5.8,43,0.00,FEW,,0.00,0.0,WeatherDisplay:10.37,2013-03-06 17:07:00,
2013-03-06 12:12:00,52.4,29.4,29.85,WNW,286,8.1,8.1,41,0.00,FEW,,0.00,0.0,WeatherDisplay:10.37,2013-03-06 17:12:00,
2013-03-06 12:17:00,52.0,29.0,29.85,West,270,13.8,13.8,41,0.00,FEW,,0.00,0.0,WeatherDisplay:10.37,2013-03-06 17:17:00,
2013-03-06 12:22:00,51.8,28.8,29.84,WSW,239,9.2,9.2,41,0.00,FEW,,0.00,0.0,WeatherDisplay:10.37,2013-03-06 17:22:00,
2013-03-06 12:27:00,52.3,30.4,29.84,West,270,5.8,6.1,43,0.00,FEW,,0.00,0.0,WeatherDisplay:10.37,2013-03-06 17:27:00,
2013-03-06 12:32:00,52.5,27.6,29.84,WSW,258,8.1,8.1,38,0.00,FEW,,0.00,0.0,WeatherDisplay:10.37,2013-03-06 17:32:00,
2013-03-06 12:37:00,52.7,29.6,29.84,WNW,299,4.6,4.6,41,0.00,FEW,,0.00,0.0,WeatherDisplay:10.37,2013-03-06 17:37:00,
2013-03-06 12:42:00,52.8,29.7,29.84,West,277,6.9,6.9,41,0.00,FEW,,0.00,0.0,WeatherDisplay:10.37,2013-03-06 17:42:00,
2013-03-06 12:47:00,53.2,28.9,29.84,West,268,11.5,11.5,39,0.00,FEW,,0.00,0.0,WeatherDisplay:10.37,2013-03-06 17:47:00,
2013-03-06 12:52:00,53.3,28.9,29.84,WSW,247,8.1,8.1,39,0.00,FEW,,0.00,0.0,WeatherDisplay:10.37,2013-03-06 17:52:00,
2013-03-06 12:57:00,53.1,29.4,29.83,WNW,285,11.5,11.5,40,0.00,FEW,,0.00,0.0,WeatherDisplay:10.37,2013-03-06 17:57:00,
2013-03-06 13:02:00,53.1,28.8,29.83,West,266,6.9,6.9,39,0.00,FEW,,0.00,0.0,WeatherDisplay:10.37,2013-03-06 18:02:00,
2013-03-06 13:07:00,53.1,28.8,29.83,West,278,9.2,9.2,39,0.00,FEW,,0.00,0.0,WeatherDisplay:10.37,2013-03-06 18:07:00,
2013-03-06 13:12:00,53.3,29.6,29.83,West,272,6.9,6.9,40,0.00,FEW,,0.00,0.0,WeatherDisplay:10.37,2013-03-06 18:12:00,
2013-03-06 13:17:00,53.7,29.3,29.83,WSW,246,10.4,10.4,39,0.00,FEW,,0.00,0.0,WeatherDisplay:10.37,2013-03-06 18:17:00,
2013-03-06 13:22:00,53.9,29.5,29.83,West,278,6.9,6.9,39,0.00,FEW,,0.00,0.0,WeatherDisplay:10.37,2013-03-06 18:22:00,
2013-03-06 13:27:00,53.9,29.5,29.82,WNW,299,6.9,6.9,39,0.00,FEW,,0.00,0.0,WeatherDisplay:10.37,2013-03-06 18:27:00,
2013-03-06 13:32:00,54.2,29.1,29.82,SW,233,3.5,6.7,38,0.00,FEW,,0.00,0.0,WeatherDisplay:10.37,2013-03-06 18:32:00,
2013-03-06 13:37:00,54.2,28.5,29.82,WNW,287,5.8,5.8,37,0.00,FEW,,0.00,0.0,WeatherDisplay:10.37,2013-03-06 18:37:00,
2013-03-06 13:42:00,53.9,28.8,29.82,NW,306,6.9,6.9,38,0.00,FEW,,0.00,0.0,WeatherDisplay:10.37,2013-03-06 18:42:00,
2013-03-06 13:47:00,54.1,30.3,29.82,SW,225,3.5,3.8,40,0.00,FEW,,0.00,0.0,WeatherDisplay:10.37,2013-03-06 18:47:00,
2013-03-06 13:52:00,54.1,27.7,29.82,WNW,289,5.8,5.8,36,0.00,FEW,,0.00,0.0,WeatherDisplay:10.37,2013-03-06 18:52:00,
2013-03-06 13:57:00,54.0,28.9,29.82,NW,304,10.4,10.4,38,0.00,FEW,,0.00,0.0,WeatherDisplay:10.37,2013-03-06 18:57:00,
2013-03-06 14:02:00,54.1,29.0,29.82,West,263,11.5,11.5,38,0.00,FEW,,0.00,0.0,WeatherDisplay:10.37,2013-03-06 19:02:00,
2013-03-06 14:07:00,54.4,29.9,29.82,WNW,288,6.9,6.9,39,0.00,FEW,,0.00,0.0,WeatherDisplay:10.37,2013-03-06 19:07:00,
2013-03-06 14:12:00,54.6,29.5,29.83,West,276,10.4,10.4,38,0.00,FEW,,0.00,0.0,WeatherDisplay:10.37,2013-03-06 19:12:00,
2013-03-06 14:17:00,54.2,29.8,29.82,West,279,8.1,8.1,39,0.00,FEW,,0.00,0.0,WeatherDisplay:10.37,2013-03-06 19:17:00,
2013-03-06 14:22:00,54.3,29.2,29.83,West,259,8.1,8.1,38,0.00,FEW,,0.00,0.0,WeatherDisplay:10.37,2013-03-06 19:22:00,
2013-03-06 14:27:00,54.3,29.8,29.83,West,271,6.9,6.9,39,0.00,FEW,,0.00,0.0,WeatherDisplay:10.37,2013-03-06 19:27:00,
2013-03-06 14:32:00,54.0,28.9,29.83,ENE,75,15.0,15.0,38,0.00,FEW,,0.00,0.0,WeatherDisplay:10.37,2013-03-06 19:32:00,
2013-03-06 14:37:00,53.8,29.4,29.83,NW,326,6.9,6.9,39,0.00,FEW,,0.00,0.0,WeatherDisplay:10.37,2013-03-06 19:37:00,
2013-03-06 14:42:00,54.1,29.7,29.83,NW,313,8.1,8.1,39,0.00,FEW,,0.00,0.0,WeatherDisplay:10.37,2013-03-06 19:42:00,
2013-03-06 14:47:00,54.2,29.8,29.83,West,274,4.6,4.6,39,0.00,FEW,,0.00,0.0,WeatherDisplay:10.37,2013-03-06 19:47:00,
2013-03-06 14:52:00,54.0,28.9,29.83,NNW,336,4.6,4.6,38,0.00,FEW,,0.00,0.0,WeatherDisplay:10.37,2013-03-06 19:52:00,
2013-03-06 14:57:00,53.3,30.2,29.83,West,271,6.9,6.9,41,0.00,FEW,,0.00,0.0,WeatherDisplay:10.37,2013-03-06 19:57:00,
2013-03-06 15:02:00,53.1,30.0,29.83,NW,316,10.0,10.0,41,0.00,FEW,,0.00,0.0,WeatherDisplay:10.37,2013-03-06 20:02:00,
2013-03-06 15:07:00,52.8,30.3,29.84,NW,316,4.6,4.6,42,0.00,FEW,,0.00,0.0,WeatherDisplay:10.37,2013-03-06 20:07:00,
2013-03-06 15:12:00,52.8,28.5,29.83,South,189,8.1,8.1,39,0.00,FEW,,0.00,0.0,WeatherDisplay:10.37,2013-03-06 20:12:00,
2013-03-06 15:17:00,52.6,29.5,29.84,West,274,8.1,8.1,41,0.00,FEW,,0.00,0.0,WeatherDisplay:10.37,2013-03-06 20:17:00,
2013-03-06 15:22:00,52.6,29.5,29.84,NW,304,8.1,8.1,41,0.00,FEW,,0.00,0.0,WeatherDisplay:10.37,2013-03-06 20:22:00,
2013-03-06 15:27:00,52.5,29.5,29.84,NW,307,6.9,6.9,41,0.00,FEW,,0.00,0.0,WeatherDisplay:10.37,2013-03-06 20:27:00,
2013-03-06 15:32:00,52.4,30.0,29.84,West,268,6.9,6.9,42,0.00,FEW,,0.00,0.0,WeatherDisplay:10.37,2013-03-06 20:32:00,
2013-03-06 15:37:00,52.5,28.8,29.84,WSW,258,5.8,5.8,40,0.00,FEW,,0.00,0.0,WeatherDisplay:10.37,2013-03-06 20:37:00,
2013-03-06 15:42:00,52.5,29.5,29.84,WNW,301,4.6,4.6,41,0.00,FEW,,0.00,0.0,WeatherDisplay:10.37,2013-03-06 20:42:00,
2013-03-06 15:47:00,52.4,30.0,29.85,West,278,6.9,6.9,42,0.00,FEW,,0.00,0.0,WeatherDisplay:10.37,2013-03-06 20:47:00,
2013-03-06 15:52:00,52.3,29.9,29.85,South,183,8.1,8.1,42,0.00,FEW,,0.00,0.0,WeatherDisplay:10.37,2013-03-06 20:52:00,
2013-03-06 15:57:00,52.1,29.1,29.85,West,270,5.8,5.8,41,0.00,FEW,,0.00,0.0,WeatherDisplay:10.37,2013-03-06 20:57:00,
2013-03-06 16:02:00,51.7,28.1,29.85,SW,216,5.8,5.8,40,0.00,FEW,,0.00,0.0,WeatherDisplay:10.37,2013-03-06 21:02:00,
2013-03-06 16:07:00,51.9,29.5,29.85,West,279,10.4,10.4,42,0.00,FEW,,0.00,0.0,WeatherDisplay:10.37,2013-03-06 21:07:00,
2013-03-06 16:12:00,52.1,29.7,29.85,WSW,249,4.0,4.0,42,0.00,FEW,,0.00,0.0,WeatherDisplay:10.37,2013-03-06 21:12:00,
2013-03-06 16:17:00,52.2,29.8,29.85,WSW,243,8.1,8.1,42,0.00,FEW,,0.00,0.0,WeatherDisplay:10.37,2013-03-06 21:17:00,
2013-03-06 16:22:00,52.0,30.7,29.85,WNW,287,6.9,6.9,44,0.00,FEW,,0.00,0.0,WeatherDisplay:10.37,2013-03-06 21:22:00,
2013-03-06 16:27:00,52.0,30.2,29.86,WNW,303,6.9,6.9,43,0.00,FEW,,0.00,0.0,WeatherDisplay:10.37,2013-03-06 21:27:00,
2013-03-06 16:32:00,52.2,30.4,29.86,WSW,243,9.2,9.2,43,0.00,FEW,,0.00,0.0,WeatherDisplay:10.37,2013-03-06 21:32:00,
2013-03-06 16:37:00,52.2,29.2,29.86,NNE,17,9.2,9.2,41,0.00,FEW,,0.00,0.0,WeatherDisplay:10.37,2013-03-06 21:37:00,
2013-03-06 16:42:00,52.0,30.2,29.86,WNW,282,11.5,11.5,43,0.00,FEW,,0.00,0.0,WeatherDisplay:10.37,2013-03-06 21:42:00,
2013-03-06 16:47:00,52.1,30.8,29.86,SW,235,6.9,6.9,44,0.00,FEW,,0.00,0.0,WeatherDisplay:10.37,2013-03-06 21:47:00,
2013-03-06 16:52:00,52.1,30.3,29.86,WSW,243,5.8,5.8,43,0.00,FEW,,0.00,0.0,WeatherDisplay:10.37,2013-03-06 21:52:00,
2013-03-06 16:57:00,52.2,30.4,29.87,West,268,4.6,4.6,43,0.00,FEW,,0.00,0.0,WeatherDisplay:10.37,2013-03-06 21:57:00,
2013-03-06 17:02:00,52.2,29.2,29.87,NW,318,15.0,15.0,41,0.00,FEW,,0.00,0.0,WeatherDisplay:10.37,2013-03-06 22:02:00,
2013-03-06 17:07:00,52.1,29.7,29.87,WNW,302,9.2,9.2,42,0.00,FEW,,0.00,0.0,WeatherDisplay:10.37,2013-03-06 22:07:00,
2013-03-06 17:12:00,52.0,29.6,29.87,West,278,6.9,6.9,42,0.00,FEW,,0.00,0.0,WeatherDisplay:10.37,2013-03-06 22:12:00,
2013-03-06 17:17:00,51.8,29.4,29.88,WNW,283,6.9,6.9,42,0.00,FEW,,0.00,0.0,WeatherDisplay:10.37,2013-03-06 22:17:00,
2013-03-06 17:22:00,51.6,30.4,29.88,NW,308,8.1,8.1,44,0.00,FEW,,0.00,0.0,WeatherDisplay:10.37,2013-03-06 22:22:00,
2013-03-06 17:27:00,51.4,30.7,29.88,WSW,258,3.5,3.5,45,0.00,FEW,,0.00,0.0,WeatherDisplay:10.37,2013-03-06 22:27:00,
2013-03-06 17:32:00,51.2,31.1,29.88,WSW,248,3.5,3.9,46,0.00,FEW,,0.00,0.0,WeatherDisplay:10.37,2013-03-06 22:32:00,
2013-03-06 17:37:00,51.0,30.4,29.89,SW,233,3.5,3.5,45,0.00,FEW,,0.00,0.0,WeatherDisplay:10.37,2013-03-06 22:37:00,
2013-03-06 17:42:00,50.8,30.7,29.89,West,265,9.2,9.2,46,0.00,FEW,,0.00,0.0,WeatherDisplay:10.37,2013-03-06 22:42:00,
2013-03-06 17:47:00,50.6,30.0,29.89,NW,314,3.5,3.5,45,0.00,FEW,,0.00,0.0,WeatherDisplay:10.37,2013-03-06 22:47:00,
2013-03-06 17:52:00,50.5,30.5,29.89,WNW,289,3.5,3.5,46,0.00,FEW,,0.00,0.0,WeatherDisplay:10.37,2013-03-06 22:52:00,
2013-03-06 17:57:00,50.3,30.3,29.90,WNW,297,4.6,4.6,46,0.00,FEW,,0.00,0.0,WeatherDisplay:10.37,2013-03-06 22:57:00,
2013-03-06 18:02:00,50.2,30.7,29.90,West,279,6.9,6.9,47,0.00,CLR,,0.00,0.0,WeatherDisplay:10.37,2013-03-06 23:02:00,
2013-03-06 18:07:00,50.0,30.5,29.90,WNW,303,6.0,6.0,47,0.00,CLR,,0.00,0.0,WeatherDisplay:10.37,2013-03-06 23:07:00,
2013-03-06 18:12:00,49.9,30.5,29.91,West,278,5.8,5.8,47,0.00,CLR,,0.00,0.0,WeatherDisplay:10.37,2013-03-06 23:12:00,
2013-03-06 18:17:00,49.7,30.8,29.91,WNW,303,2.3,2.3,48,0.00,CLR,,0.00,0.0,WeatherDisplay:10.37,2013-03-06 23:17:00,
2013-03-06 18:22:00,49.4,31.5,29.92,NW,308,3.5,3.5,50,0.00,CLR,,0.00,0.0,WeatherDisplay:10.37,2013-03-06 23:22:00,
2013-03-06 18:27:00,49.2,29.8,29.92,WNW,284,3.5,3.5,47,0.00,CLR,,0.00,0.0,WeatherDisplay:10.37,2013-03-06 23:27:00,
2013-03-06 18:32:00,49.0,31.2,29.92,WNW,297,8.1,8.1,50,0.00,CLR,,0.00,0.0,WeatherDisplay:10.37,2013-03-06 23:32:00,
2013-03-06 18:37:00,48.9,30.1,29.93,NW,307,4.6,4.6,48,0.00,CLR,,0.00,0.0,WeatherDisplay:10.37,2013-03-06 23:37:00,
2013-03-06 18:42:00,48.8,31.0,29.93,West,277,4.6,4.6,50,0.00,CLR,,0.00,0.0,WeatherDisplay:10.37,2013-03-06 23:42:00,
2013-03-06 18:47:00,48.6,30.8,29.93,West,276,3.5,3.5,50,0.00,CLR,,0.00,0.0,WeatherDisplay:10.37,2013-03-06 23:47:00,
2013-03-06 18:52:00,48.3,30.5,29.94,West,263,3.5,3.5,50,0.00,CLR,,0.00,0.0,WeatherDisplay:10.37,2013-03-06 23:52:00,
2013-03-06 18:57:00,48.1,30.8,29.94,West,280,4.6,4.6,51,0.00,CLR,,0.00,0.0,WeatherDisplay:10.37,2013-03-06 23:57:00,
2013-03-06 19:02:00,48.0,30.7,29.95,WNW,289,2.0,2.0,51,0.00,CLR,,0.00,0.0,WeatherDisplay:10.37,2013-03-07 00:02:00,
2013-03-06 19:07:00,47.9,31.1,29.95,West,279,2.3,2.3,52,0.00,CLR,,0.00,0.0,WeatherDisplay:10.37,2013-03-07 00:07:00,
2013-03-06 19:12:00,47.8,31.0,29.95,West,263,3.5,3.5,52,0.00,CLR,,0.00,0.0,WeatherDisplay:10.37,2013-03-07 00:12:00,
2013-03-06 19:17:00,47.7,31.4,29.95,West,271,2.0,2.0,53,0.00,CLR,,0.00,0.0,WeatherDisplay:10.37,2013-03-07 00:17:00,
2013-03-06 19:22:00,47.4,31.1,29.96,West,267,2.3,2.3,53,0.00,CLR,,0.00,0.0,WeatherDisplay:10.37,2013-03-07 00:22:00,
2013-03-06 19:27:00,47.3,31.0,29.96,SW,230,2.3,2.3,53,0.00,CLR,,0.00,0.0,WeatherDisplay:10.37,2013-03-07 00:27:00,
2013-03-06 19:32:00,47.1,30.8,29.96,WNW,285,1.2,1.2,53,0.00,CLR,,0.00,0.0,WeatherDisplay:10.37,2013-03-07 00:32:00,
2013-03-06 19:37:00,47.0,30.7,29.97,NNW,331,3.5,3.5,53,0.00,CLR,,0.00,0.0,WeatherDisplay:10.37,2013-03-07 00:37:00,
2013-03-06 19:42:00,46.9,30.6,29.97,WNW,285,2.3,2.3,53,0.00,CLR,,0.00,0.0,WeatherDisplay:10.37,2013-03-07 00:42:00,
2013-03-06 19:47:00,46.7,30.9,29.97,West,278,3.5,3.5,54,0.00,CLR,,0.00,0.0,WeatherDisplay:10.37,2013-03-07 00:47:00,
2013-03-06 19:52:00,46.4,31.1,29.98,West,274,2.3,2.3,55,0.00,CLR,,0.00,0.0,WeatherDisplay:10.37,2013-03-07 00:52:00,
2013-03-06 19:57:00,46.2,31.4,29.98,West,274,2.3,2.3,56,0.00,CLR,,0.00,0.0,WeatherDisplay:10.37,2013-03-07 00:57:00,
2013-03-06 20:02:00,46.0,31.6,29.98,West,274,2.3,2.3,57,0.00,CLR,,0.00,0.0,WeatherDisplay:10.37,2013-03-07 01:02:00,
2013-03-06 20:07:00,45.6,31.2,29.99,West,259,2.3,2.3,57,0.00,CLR,,0.00,0.0,WeatherDisplay:10.37,2013-03-07 01:07:00,
2013-03-06 20:12:00,45.4,31.5,29.99,West,276,1.2,1.2,58,0.00,CLR,,0.00,0.0,WeatherDisplay:10.37,2013-03-07 01:12:00,
2013-03-06 20:17:00,45.1,31.2,29.99,West,278,2.3,2.3,58,0.00,CLR,,0.00,0.0,WeatherDisplay:10.37,2013-03-07 01:17:00,
2013-03-06 20:22:00,44.8,31.3,30.00,North,354,1.2,1.2,59,0.00,CLR,,0.00,0.0,WeatherDisplay:10.37,2013-03-07 01:22:00,
2013-03-06 20:27:00,44.7,31.2,30.00,NNW,330,2.3,2.3,59,0.00,CLR,,0.00,0.0,WeatherDisplay:10.37,2013-03-07 01:27:00,
2013-03-06 20:32:00,44.7,30.8,30.00,ESE,115,3.5,3.5,58,0.00,CLR,,0.00,0.0,WeatherDisplay:10.37,2013-03-07 01:32:00,
2013-03-06 20:37:00,45.1,31.2,30.00,NW,320,3.5,3.5,58,0.00,CLR,,0.00,0.0,WeatherDisplay:10.37,2013-03-07 01:37:00,
2013-03-06 20:42:00,45.7,30.9,30.00,NNW,328,3.5,3.5,56,0.00,CLR,,0.00,0.0,WeatherDisplay:10.37,2013-03-07 01:42:00,
2013-03-06 20:47:00,45.9,31.1,30.01,NNW,337,3.5,3.5,56,0.00,CLR,,0.00,0.0,WeatherDisplay:10.37,2013-03-07 01:47:00,
2013-03-06 20:52:00,46.1,31.3,30.01,East,100,2.3,2.3,56,0.00,CLR,,0.00,0.0,WeatherDisplay:10.37,2013-03-07 01:52:00,
2013-03-06 20:57:00,46.2,30.5,30.01,NNW,332,8.1,8.1,54,0.00,CLR,,0.00,0.0,WeatherDisplay:10.37,2013-03-07 01:57:00,
2013-03-06 21:02:00,46.2,31.4,30.01,West,265,4.6,4.6,56,0.00,CLR,,0.00,0.0,WeatherDisplay:10.37,2013-03-07 02:02:00,
2013-03-06 21:07:00,46.1,31.3,30.02,NNW,335,4.6,4.6,56,0.00,CLR,,0.00,0.0,WeatherDisplay:10.37,2013-03-07 02:07:00,
2013-03-06 21:12:00,45.9,31.1,30.02,WSW,249,3.5,3.5,56,0.00,CLR,,0.00,0.0,WeatherDisplay:10.37,2013-03-07 02:12:00,
2013-03-06 21:17:00,45.8,30.5,30.02,NNW,336,2.3,2.3,55,0.00,CLR,,0.00,0.0,WeatherDisplay:10.37,2013-03-07 02:17:00,
2013-03-06 21:22:00,45.7,30.9,30.02,WSW,253,2.3,2.3,56,0.00,CLR,,0.00,0.0,WeatherDisplay:10.37,2013-03-07 02:22:00,
2013-03-06 21:27:00,45.7,30.4,30.02,WNW,289,3.5,3.5,55,0.00,CLR,,0.00,0.0,WeatherDisplay:10.37,2013-03-07 02:27:00,
2013-03-06 21:32:00,45.9,30.2,30.02,North,350,6.9,6.9,54,0.00,CLR,,0.00,0.0,WeatherDisplay:10.37,2013-03-07 02:32:00,
2013-03-06 21:37:00,46.0,30.3,30.03,North,350,5.8,5.8,54,0.00,CLR,,0.00,0.0,WeatherDisplay:10.37,2013-03-07 02:37:00,
2013-03-06 21:42:00,46.2,30.5,30.03,NW,313,8.1,8.1,54,0.00,CLR,,0.00,0.0,WeatherDisplay:10.37,2013-03-07 02:42:00,
2013-03-06 21:47:00,46.1,30.8,30.03,NNW,336,2.3,2.3,55,0.00,CLR,,0.00,0.0,WeatherDisplay:10.37,2013-03-07 02:47:00,
2013-03-06 21:52:00,45.9,30.6,30.03,NNE,19,2.3,2.3,55,0.00,CLR,,0.00,0.0,WeatherDisplay:10.37,2013-03-07 02:52:00,
2013-03-06 21:57:00,45.6,30.8,30.03,North,354,2.3,2.3,56,0.00,CLR,,0.00,0.0,WeatherDisplay:10.37,2013-03-07 02:57:00,
2013-03-06 22:02:00,45.3,31.0,30.04,East,95,3.5,3.5,57,0.00,CLR,,0.00,0.0,WeatherDisplay:10.37,2013-03-07 03:02:00,
2013-03-06 22:07:00,44.9,30.1,30.04,North,350,3.5,3.5,56,0.00,CLR,,0.00,0.0,WeatherDisplay:10.37,2013-03-07 03:07:00,
2013-03-06 22:12:00,44.7,30.4,30.04,North,4,3.5,3.5,57,0.00,CLR,,0.00,0.0,WeatherDisplay:10.37,2013-03-07 03:12:00,
2013-03-06 22:17:00,44.5,30.6,30.04,NW,317,3.5,3.5,58,0.00,CLR,,0.00,0.0,WeatherDisplay:10.37,2013-03-07 03:17:00,
2013-03-06 22:22:00,44.3,30.9,30.04,NW,316,0.0,0.0,59,0.00,CLR,,0.00,0.0,WeatherDisplay:10.37,2013-03-07 03:22:00,
2013-03-06 22:27:00,44.1,30.7,30.04,NW,316,0.0,0.0,59,0.00,CLR,,0.00,0.0,WeatherDisplay:10.37,2013-03-07 03:27:00,
2013-03-06 22:32:00,43.7,30.7,30.04,NNW,332,1.2,0.0,60,0.00,CLR,,0.00,0.0,WeatherDisplay:10.37,2013-03-07 03:32:00,
2013-03-06 22:37:00,43.4,30.4,30.04,NNW,340,2.3,2.3,60,0.00,CLR,,0.00,0.0,WeatherDisplay:10.37,2013-03-07 03:37:00,
2013-03-06 22:42:00,43.2,30.6,30.04,NNW,330,2.3,2.3,61,0.00,CLR,,0.00,0.0,WeatherDisplay:10.37,2013-03-07 03:42:00,
2013-03-06 22:47:00,43.1,31.0,30.04,NW,314,1.2,0.0,62,0.00,CLR,,0.00,0.0,WeatherDisplay:10.37,2013-03-07 03:47:00,
2013-03-06 22:52:00,42.8,30.7,30.05,NW,314,2.3,2.3,62,0.00,CLR,,0.00,0.0,WeatherDisplay:10.37,2013-03-07 03:52:00,
2013-03-06 22:57:00,42.6,31.3,30.04,NW,326,1.2,1.2,64,0.00,CLR,,0.00,0.0,WeatherDisplay:10.37,2013-03-07 03:57:00,
2013-03-06 23:02:00,42.4,30.7,30.05,NW,320,0.0,0.0,63,0.00,CLR,,0.00,0.0,WeatherDisplay:10.37,2013-03-07 04:02:00,
2013-03-06 23:07:00,42.2,30.9,30.05,NW,320,1.2,1.2,64,0.00,CLR,,0.00,0.0,WeatherDisplay:10.37,2013-03-07 04:07:00,
2013-03-06 23:12:00,42.0,30.7,30.05,NNW,336,2.3,2.3,64,0.00,CLR,,0.00,0.0,WeatherDisplay:10.37,2013-03-07 04:12:00,
2013-03-06 23:17:00,41.8,30.9,30.05,NNW,335,1.2,1.2,65,0.00,CLR,,0.00,0.0,WeatherDisplay:10.37,2013-03-07 04:17:00,
2013-03-06 23:22:00,41.8,31.3,30.05,NNW,343,2.3,2.3,66,0.00,CLR,,0.00,0.0,WeatherDisplay:10.37,2013-03-07 04:22:00,
2013-03-06 23:27:00,41.7,30.8,30.06,NNW,342,0.0,0.0,65,0.00,CLR,,0.00,0.0,WeatherDisplay:10.37,2013-03-07 04:27:00,
2013-03-06 23:32:00,41.6,31.1,30.06,NNW,342,1.2,0.0,66,0.00,CLR,,0.00,0.0,WeatherDisplay:10.37,2013-03-07 04:32:00,
2013-03-06 23:37:00,41.5,31.0,30.06,NNW,343,0.0,0.0,66,0.00,CLR,,0.00,0.0,WeatherDisplay:10.37,2013-03-07 04:37:00,
2013-03-06 23:42:00,41.3,31.2,30.06,NNW,332,0.0,0.4,67,0.00,CLR,,0.00,0.0,WeatherDisplay:10.37,2013-03-07 04:42:00,
2013-03-06 23:47:00,41.3,30.8,30.06,NNW,332,0.0,0.0,66,0.00,CLR,,0.00,0.0,WeatherDisplay:10.37,2013-03-07 04:47:00,
2013-03-06 23:52:00,41.5,30.6,30.06,NNW,347,1.2,1.2,65,0.00,CLR,,0.00,0.0,WeatherDisplay:10.37,2013-03-07 04:52:00,
2013-03-06 23:57:00,41.5,31.0,30.06,North,4,2.3,2.3,66,0.00,CLR,,0.00,0.0,WeatherDisplay:10.37,2013-03-07 04:57:00,